Hanson, MA

8:50 PM EST on November 25, 2014 (GMT -0500)
Forest Trail | Change Station
CLOSE
Current Station
Personal Weather Station
Location: Hanson, MA
Elevation: 112 ft
Nearby Weather Stations

Elev 112 ft 42.08 °N, 70.89 °W | Updated 3 seconds ago

Partly Cloudy
Partly Cloudy
49.1 °F
Feels Like 49 °F
N
0.0
Wind Variable Wind from South
Gusts 0.0 mph

Today
High -- | Low -- °F
--% Chance of Precip.
Yesterday
High -- | Low -- °F
Precip. -- in
6:45 AM 4:15 PM
Waxing Crescent, 15% visible
Pressure 30.04 in
Visibility 10.0 miles
Clouds Clear
Windchill 49 °F
Dew Point 32 °F
Humidity 52%
Rainfall 0.05 in
Snow Depth Not available.
UV 0 out of 12
Pollen .10 out of 12
Air Quality Not available.
Flu Activity Not available.
METAR KPYM 260052Z AUTO 27005KT 10SM CLR 10/00 A3003 RMK AO2 SLP170 T01000000

More Conditions Fewer Conditions

Pressure 30.04 in
Visibility 10.0 miles
Clouds Clear
Windchill 49 °F
Dew Point 32 °F
Humidity 52%
Rainfall 0.05 in
Snow Depth Not available.
UV 0 out of 12
Pollen .10 out of 12
Air Quality Not available.
Flu Activity Not available.
METAR KPYM 260052Z AUTO 27005KT 10SM CLR 10/00 A3003 RMK AO2 SLP170 T01000000

More Conditions Fewer Conditions

10-Day Weather Forecast

Almanac

Astronomy

Nov. 25, 2014 Rise Set
Actual Time
Civil Twilight
Nautical Twilight
Astronomical Twilight
Moon
Length of Visible Light
Length of Day
Tomorrow will be .
, % of the Moon is Illuminated

Today's Extremes

State Highs State Lows

Community

WunderPhotos

Upload Photos

1,773,634 photos uploaded!

WunderBlogs® & News

Nearby

Air Quality

  Air Quality AQ Index Pollutant
Not available.

Snow Depth

Station Depth Elevation

Earthquake Activity

City Distance Mag. Time & Date
Minimum magnitude displayed is 2.5.

Coastal Water Temperatures

Place Temperature

Nearby Weather Stations